aviador You're here:

KPNE Decoded Metar

PHILADELPHIA in PA, USA
Report Time2017-11-23 02:54:00
UTC Time2017-11-23 03:21:28
Flight Rules vfr VFR
Wind330° at 05 kt
W.Decomp.*RWY 33: 4.9 kt HW 1.0 kt RCW
RWY 06: 1.0 kt HW 4.9 kt LCW
W.Rank330° ranks 5
Current wind is below 330° avg. (8.4)
Visibility9999 m
Phenomena:N/A
Clouds:N/A
Expected CloudBase > 2,800 ft AGL from Temp-Dew spread
CeilingNone
Temp03°C (ISA -12)
Dew Point-4°C (60% RH)
AAT-1.3°C
QNH1020 hPa
Density Alt-1,516 ft
Elevation92 ft
Report Wrong Elevation
Raw Report
KPNE 230254Z 33005KT 10SM CLR 03/M04 A3013 RMK AO2 SLP204
T00281044 51016=

Extra information for KPNE:More info

Metar Taf Metar & Taf Last 4 Metars F.Rules Stats Wind Profile Meteogram Temp Stats Airport Information Weather charts Add Link Nearby VenuesMetar ALERT Operation Metar Decoded Social comments

AIRNAV info for KPNE